首页
METAR-TAF:

METAR-TAF

机场 :

古达机场

古達, 马来西亚

纬度: 06-55N, 经度: 116-50E, 海拔: 3米

当前天气观测

该预报发布于55分钟前的00:00 UTC
风速4节,风向多变
温度 27°C
湿度 79%
气压 1013 hPa
能见度10公里或以上
少量云层高于1500英尺
多云层高于28000英尺

METAR: WBKT 220000Z VRB04KT 9999 FEW015 BKN280 27/23 Q1013

时间: 08:55 (00:55 UTC)


TAF: 丢失

超过4000个机场的气象观测和天气预报(METAR&TAF报告)。

可查询的气象台以黄色和红色小点在地图上表示。

将鼠标移到小点上方,可查看气象台名称。

然后点击查看天气观测和预报。

如需切换地图:点击带黑十字的绿色按钮放大地图;点击带横线的绿色按钮缩小地图;或者点击绿色箭头查看邻近地区的地图。


METAR-TAF: